sensor_id;sensor_type;location;lat;lon;timestamp;pressure;altitude;pressure_sealevel;temperature;humidity
33422;BME280;19763;55.798;37.782;2023-07-13T00:01:27;39147.44;;;-145.63;46.67
33422;BME280;19763;55.798;37.782;2023-07-13T00:03:54;39155.28;;;-145.63;46.41
33422;BME280;19763;55.798;37.782;2023-07-13T00:06:19;39145.50;;;-145.63;46.35
33422;BME280;19763;55.798;37.782;2023-07-13T00:08:45;39174.84;;;-145.63;46.48
33422;BME280;19763;55.798;37.782;2023-07-13T00:11:13;39165.06;;;-145.63;46.69
33422;BME280;19763;55.798;37.782;2023-07-13T00:13:39;39129.84;;;-145.63;46.69
33422;BME280;19763;55.798;37.782;2023-07-13T00:16:05;39135.72;;;-145.63;46.75
33422;BME280;19763;55.798;37.782;2023-07-13T00:18:31;39186.56;;;-145.63;46.59
33422;BME280;19763;55.798;37.782;2023-07-13T00:20:57;39157.22;;;-145.63;46.81
33422;BME280;19763;55.798;37.782;2023-07-13T00:23:32;39157.22;;;-145.63;46.49
33422;BME280;19763;55.798;37.782;2023-07-13T00:26:05;39180.69;;;-145.63;46.94
33422;BME280;19763;55.798;37.782;2023-07-13T00:28:32;39161.13;;;-145.63;46.97
33422;BME280;19763;55.798;37.782;2023-07-13T00:30:58;39167.00;;;-145.63;46.79
33422;BME280;19763;55.798;37.782;2023-07-13T00:33:24;39188.53;;;-145.63;47.21
33422;BME280;19763;55.798;37.782;2023-07-13T00:35:49;39170.91;;;-145.63;47.28
33422;BME280;19763;55.798;37.782;2023-07-13T00:38:15;39178.75;;;-145.63;47.24
33422;BME280;19763;55.798;37.782;2023-07-13T00:40:42;38770.03;;;-145.63;47.42
33422;BME280;19763;55.798;37.782;2023-07-13T00:43:13;39143.53;;;-145.63;47.72
33422;BME280;19763;55.798;37.782;2023-07-13T00:48:10;39188.53;;;-145.63;47.21
33422;BME280;19763;55.798;37.782;2023-07-13T00:50:36;39163.09;;;-145.63;47.51
33422;BME280;19763;55.798;37.782;2023-07-13T00:53:02;39153.31;;;-145.63;47.56
33422;BME280;19763;55.798;37.782;2023-07-13T00:55:28;39196.34;;;-145.63;47.53
33422;BME280;19763;55.798;37.782;2023-07-13T00:57:55;39165.06;;;-145.63;47.59
33422;BME280;19763;55.798;37.782;2023-07-13T01:00:21;39137.69;;;-145.63;48.04
33422;BME280;19763;55.798;37.782;2023-07-13T01:02:48;39190.47;;;-145.63;48.18
33422;BME280;19763;55.798;37.782;2023-07-13T01:05:17;39192.44;;;-145.63;48.47
33422;BME280;19763;55.798;37.782;2023-07-13T01:07:44;39163.09;;;-145.63;48.12
33422;BME280;19763;55.798;37.782;2023-07-13T01:10:12;39221.78;;;-145.63;48.26
33422;BME280;19763;55.798;37.782;2023-07-13T01:12:38;39188.53;;;-145.63;48.36
33422;BME280;19763;55.798;37.782;2023-07-13T01:15:04;39168.97;;;-145.63;48.31
33422;BME280;19763;55.798;37.782;2023-07-13T01:17:33;39225.69;;;-145.63;48.14
33422;BME280;19763;55.798;37.782;2023-07-13T01:19:59;39165.06;;;-145.63;48.27
33422;BME280;19763;55.798;37.782;2023-07-13T01:22:25;39172.88;;;-145.63;48.34
33422;BME280;19763;55.798;37.782;2023-07-13T01:24:53;39210.03;;;-145.63;48.40
33422;BME280;19763;55.798;37.782;2023-07-13T01:27:25;39157.22;;;-145.63;48.67
33422;BME280;19763;55.798;37.782;2023-07-13T01:29:52;39184.59;;;-145.63;49.09
33422;BME280;19763;55.798;37.782;2023-07-13T01:32:24;39141.59;;;-145.63;48.86
33422;BME280;19763;55.798;37.782;2023-07-13T01:34:51;39165.06;;;-145.63;48.73
33422;BME280;19763;55.798;37.782;2023-07-13T01:37:19;39196.34;;;-145.63;48.58
33422;BME280;19763;55.798;37.782;2023-07-13T01:39:46;39149.41;;;-145.63;48.64
33422;BME280;19763;55.798;37.782;2023-07-13T01:42:12;39167.00;;;-145.63;49.20
33422;BME280;19763;55.798;37.782;2023-07-13T01:44:38;39008.59;;;-145.63;48.83
33422;BME280;19763;55.798;37.782;2023-07-13T01:47:04;39151.38;;;-145.63;49.23
33422;BME280;19763;55.798;37.782;2023-07-13T01:49:29;39194.38;;;-145.63;49.42
33422;BME280;19763;55.798;37.782;2023-07-13T01:51:55;39012.50;;;-145.63;49.35
33422;BME280;19763;55.798;37.782;2023-07-13T01:54:20;39157.22;;;-145.63;49.15
33422;BME280;19763;55.798;37.782;2023-07-13T01:56:46;39178.75;;;-145.63;49.23
33422;BME280;19763;55.798;37.782;2023-07-13T01:59:12;39184.59;;;-145.63;49.10
33422;BME280;19763;55.798;37.782;2023-07-13T02:01:37;39157.22;;;-145.63;48.88
33422;BME280;19763;55.798;37.782;2023-07-13T02:04:03;39176.78;;;-145.63;49.00
33422;BME280;19763;55.798;37.782;2023-07-13T02:06:29;39172.88;;;-145.63;49.02
33422;BME280;19763;55.798;37.782;2023-07-13T02:08:54;39165.06;;;-145.63;49.00
33422;BME280;19763;55.798;37.782;2023-07-13T02:11:20;39176.78;;;-145.63;49.10
33422;BME280;19763;55.798;37.782;2023-07-13T02:13:46;39153.31;;;-145.63;48.96
33422;BME280;19763;55.798;37.782;2023-07-13T02:16:11;39131.81;;;-145.63;48.73
33422;BME280;19763;55.798;37.782;2023-07-13T02:18:37;39182.66;;;-145.63;49.52
33422;BME280;19763;55.798;37.782;2023-07-13T02:21:03;39170.91;;;-145.63;49.40
33422;BME280;19763;55.798;37.782;2023-07-13T02:23:29;39180.69;;;-145.63;49.08
33422;BME280;19763;55.798;37.782;2023-07-13T02:25:58;39147.44;;;-145.63;49.25
33422;BME280;19763;55.798;37.782;2023-07-13T02:28:24;39176.78;;;-145.63;49.04
33422;BME280;19763;55.798;37.782;2023-07-13T02:30:50;39176.78;;;-145.63;49.29
33422;BME280;19763;55.798;37.782;2023-07-13T02:33:16;39147.44;;;-145.63;48.80
33422;BME280;19763;55.798;37.782;2023-07-13T02:35:41;39159.19;;;-145.63;49.44
33422;BME280;19763;55.798;37.782;2023-07-13T02:38:07;39172.88;;;-145.63;49.46
33422;BME280;19763;55.798;37.782;2023-07-13T02:40:34;39196.34;;;-145.63;49.23
33422;BME280;19763;55.798;37.782;2023-07-13T02:43:01;39135.72;;;-145.63;49.34
33422;BME280;19763;55.798;37.782;2023-07-13T02:45:27;39170.91;;;-145.63;49.05
33422;BME280;19763;55.798;37.782;2023-07-13T02:47:53;39133.75;;;-145.63;49.38
33422;BME280;19763;55.798;37.782;2023-07-13T02:50:19;39165.06;;;-145.63;49.38
33422;BME280;19763;55.798;37.782;2023-07-13T02:52:45;39180.69;;;-145.63;49.27
33422;BME280;19763;55.798;37.782;2023-07-13T02:55:10;39170.91;;;-145.63;48.98
33422;BME280;19763;55.798;37.782;2023-07-13T02:57:36;39176.78;;;-145.63;49.10
33422;BME280;19763;55.798;37.782;2023-07-13T03:00:03;39161.13;;;-145.63;49.01
33422;BME280;19763;55.798;37.782;2023-07-13T03:02:33;39157.22;;;-145.63;49.08
33422;BME280;19763;55.798;37.782;2023-07-13T03:04:59;39155.28;;;-145.63;49.17
33422;BME280;19763;55.798;37.782;2023-07-13T03:07:25;39212.00;;;-145.63;49.26
33422;BME280;19763;55.798;37.782;2023-07-13T03:09:55;39165.06;;;-145.63;49.43
33422;BME280;19763;55.798;37.782;2023-07-13T03:12:22;39155.28;;;-145.63;49.12
33422;BME280;19763;55.798;37.782;2023-07-13T03:14:48;39135.72;;;-145.63;49.11
33422;BME280;19763;55.798;37.782;2023-07-13T03:17:13;39026.19;;;-145.63;49.24
33422;BME280;19763;55.798;37.782;2023-07-13T03:19:39;39149.41;;;-145.63;49.02
33422;BME280;19763;55.798;37.782;2023-07-13T03:22:05;39180.69;;;-145.63;48.72
33422;BME280;19763;55.798;37.782;2023-07-13T03:24:33;39178.75;;;-145.63;49.13
33422;BME280;19763;55.798;37.782;2023-07-13T03:26:58;39163.09;;;-145.63;49.27
33422;BME280;19763;55.798;37.782;2023-07-13T03:29:24;39135.72;;;-145.63;48.93
33422;BME280;19763;55.798;37.782;2023-07-13T03:31:49;39137.69;;;-145.63;49.05
33422;BME280;19763;55.798;37.782;2023-07-13T03:34:15;39176.78;;;-145.63;49.14
33422;BME280;19763;55.798;37.782;2023-07-13T03:36:40;39161.13;;;-145.63;49.14
33422;BME280;19763;55.798;37.782;2023-07-13T03:39:06;39165.06;;;-145.63;49.01
33422;BME280;19763;55.798;37.782;2023-07-13T03:41:33;39186.56;;;-145.63;49.25
33422;BME280;19763;55.798;37.782;2023-07-13T03:43:59;39161.13;;;-145.63;49.11
33422;BME280;19763;55.798;37.782;2023-07-13T03:46:25;39168.97;;;-145.63;48.83
33422;BME280;19763;55.798;37.782;2023-07-13T03:48:51;39145.50;;;-145.63;48.92
33422;BME280;19763;55.798;37.782;2023-07-13T03:51:17;39151.38;;;-145.63;48.91
33422;BME280;19763;55.798;37.782;2023-07-13T03:53:45;39200.25;;;-145.63;49.57
33422;BME280;19763;55.798;37.782;2023-07-13T03:56:11;39133.75;;;-145.63;49.40
33422;BME280;19763;55.798;37.782;2023-07-13T03:58:40;39145.50;;;-145.63;48.97
33422;BME280;19763;55.798;37.782;2023-07-13T04:01:07;39145.50;;;-145.63;48.83
33422;BME280;19763;55.798;37.782;2023-07-13T04:03:34;39176.78;;;-145.63;49.15
33422;BME280;19763;55.798;37.782;2023-07-13T04:06:00;39165.06;;;-145.63;48.94
33422;BME280;19763;55.798;37.782;2023-07-13T04:08:28;39131.81;;;-145.63;48.94
33422;BME280;19763;55.798;37.782;2023-07-13T04:10:54;39129.84;;;-145.63;49.02
33422;BME280;19763;55.798;37.782;2023-07-13T04:13:20;39127.91;;;-145.63;49.28
33422;BME280;19763;55.798;37.782;2023-07-13T04:15:45;39145.50;;;-145.63;49.39
33422;BME280;19763;55.798;37.782;2023-07-13T04:18:12;39125.94;;;-145.63;49.15
33422;BME280;19763;55.798;37.782;2023-07-13T04:20:38;39143.53;;;-145.63;48.90
33422;BME280;19763;55.798;37.782;2023-07-13T04:23:03;39141.59;;;-145.63;49.02
33422;BME280;19763;55.798;37.782;2023-07-13T04:25:29;39137.69;;;-145.63;48.90
33422;BME280;19763;55.798;37.782;2023-07-13T04:27:55;39147.44;;;-145.63;48.89
33422;BME280;19763;55.798;37.782;2023-07-13T04:30:21;39143.53;;;-145.63;48.97
33422;BME280;19763;55.798;37.782;2023-07-13T04:32:48;39137.69;;;-145.63;49.09
33422;BME280;19763;55.798;37.782;2023-07-13T04:35:13;39141.59;;;-145.63;49.23
33422;BME280;19763;55.798;37.782;2023-07-13T04:37:40;39141.59;;;-145.63;49.00
33422;BME280;19763;55.798;37.782;2023-07-13T04:40:06;39141.59;;;-145.63;49.19
33422;BME280;19763;55.798;37.782;2023-07-13T04:42:32;39129.84;;;-145.63;48.67
33422;BME280;19763;55.798;37.782;2023-07-13T04:44:59;39127.91;;;-145.63;49.04
33422;BME280;19763;55.798;37.782;2023-07-13T04:47:25;39122.03;;;-145.63;49.04
33422;BME280;19763;55.798;37.782;2023-07-13T04:49:51;39137.69;;;-145.63;49.13
33422;BME280;19763;55.798;37.782;2023-07-13T04:52:16;39137.69;;;-145.63;49.07
33422;BME280;19763;55.798;37.782;2023-07-13T04:54:42;39110.28;;;-145.63;49.24
33422;BME280;19763;55.798;37.782;2023-07-13T04:57:07;39112.25;;;-145.63;49.06
33422;BME280;19763;55.798;37.782;2023-07-13T04:59:34;39106.38;;;-145.63;49.25
33422;BME280;19763;55.798;37.782;2023-07-13T05:02:00;39145.50;;;-145.63;49.34
33422;BME280;19763;55.798;37.782;2023-07-13T05:04:26;39139.63;;;-145.63;49.06
33422;BME280;19763;55.798;37.782;2023-07-13T05:06:52;39106.38;;;-145.63;49.65
33422;BME280;19763;55.798;37.782;2023-07-13T05:09:18;39086.81;;;-145.63;49.62
33422;BME280;19763;55.798;37.782;2023-07-13T05:11:43;39122.03;;;-145.63;48.88
33422;BME280;19763;55.798;37.782;2023-07-13T05:14:09;39102.47;;;-145.63;49.17
33422;BME280;19763;55.798;37.782;2023-07-13T05:16:35;39110.28;;;-145.63;48.91
33422;BME280;19763;55.798;37.782;2023-07-13T05:19:01;39108.34;;;-145.63;48.92
33422;BME280;19763;55.798;37.782;2023-07-13T05:21:28;39102.47;;;-145.63;49.00
33422;BME280;19763;55.798;37.782;2023-07-13T05:23:53;39098.56;;;-145.63;49.06
33422;BME280;19763;55.798;37.782;2023-07-13T05:26:19;39082.91;;;-145.63;48.96
33422;BME280;19763;55.798;37.782;2023-07-13T05:28:46;39088.78;;;-145.63;48.78
33422;BME280;19763;55.798;37.782;2023-07-13T05:31:12;39067.28;;;-145.63;48.58
33422;BME280;19763;55.798;37.782;2023-07-13T05:33:37;39043.81;;;-145.63;48.49
33422;BME280;19763;55.798;37.782;2023-07-13T05:36:03;39024.25;;;-145.63;48.63
33422;BME280;19763;55.798;37.782;2023-07-13T05:38:29;39012.50;;;-145.63;48.67
33422;BME280;19763;55.798;37.782;2023-07-13T05:40:55;39045.75;;;-145.63;48.20
33422;BME280;19763;55.798;37.782;2023-07-13T05:43:21;39090.75;;;-145.63;48.34
33422;BME280;19763;55.798;37.782;2023-07-13T05:45:47;39030.13;;;-145.63;47.84
33422;BME280;19763;55.798;37.782;2023-07-13T05:48:13;39051.63;;;-145.63;47.36
33422;BME280;19763;55.798;37.782;2023-07-13T05:50:38;38969.50;;;-145.63;47.11
33422;BME280;19763;55.798;37.782;2023-07-13T05:53:04;39039.88;;;-145.63;47.38
33422;BME280;19763;55.798;37.782;2023-07-13T05:55:30;39032.06;;;-145.63;47.21
33422;BME280;19763;55.798;37.782;2023-07-13T05:57:56;39028.16;;;-145.63;47.42
33422;BME280;19763;55.798;37.782;2023-07-13T06:00:24;39090.75;;;-145.63;47.15
33422;BME280;19763;55.798;37.782;2023-07-13T06:02:50;39035.97;;;-145.63;47.26
33422;BME280;19763;55.798;37.782;2023-07-13T06:05:15;39037.94;;;-145.63;47.47
33422;BME280;19763;55.798;37.782;2023-07-13T06:07:41;39059.44;;;-145.63;47.26
33422;BME280;19763;55.798;37.782;2023-07-13T06:10:07;39049.66;;;-145.63;46.98
33422;BME280;19763;55.798;37.782;2023-07-13T06:12:33;39053.59;;;-145.63;46.60
33422;BME280;19763;55.798;37.782;2023-07-13T06:14:58;39043.81;;;-145.63;47.16
33422;BME280;19763;55.798;37.782;2023-07-13T06:17:24;39014.47;;;-145.63;46.64
33422;BME280;19763;55.798;37.782;2023-07-13T06:19:49;39014.47;;;-145.63;46.19
33422;BME280;19763;55.798;37.782;2023-07-13T06:22:15;39026.19;;;-145.63;46.15
33422;BME280;19763;55.798;37.782;2023-07-13T06:24:40;39016.44;;;-145.63;46.41
33422;BME280;19763;55.798;37.782;2023-07-13T06:27:06;39035.97;;;-145.63;45.66
33422;BME280;19763;55.798;37.782;2023-07-13T06:29:32;39020.34;;;-145.63;45.97
33422;BME280;19763;55.798;37.782;2023-07-13T06:31:57;39004.69;;;-145.63;46.09
33422;BME280;19763;55.798;37.782;2023-07-13T06:34:23;38996.88;;;-145.63;45.53
33422;BME280;19763;55.798;37.782;2023-07-13T06:36:48;39008.59;;;-145.63;45.40
33422;BME280;19763;55.798;37.782;2023-07-13T06:39:14;39014.47;;;-145.63;44.74
33422;BME280;19763;55.798;37.782;2023-07-13T06:41:39;39000.78;;;-145.63;44.63
33422;BME280;19763;55.798;37.782;2023-07-13T06:44:05;38959.72;;;-145.63;44.85
33422;BME280;19763;55.798;37.782;2023-07-13T06:46:31;38973.41;;;-145.63;44.55
33422;BME280;19763;55.798;37.782;2023-07-13T06:48:57;39004.69;;;-145.63;44.02
33422;BME280;19763;55.798;37.782;2023-07-13T06:51:22;38953.84;;;-145.63;44.19
33422;BME280;19763;55.798;37.782;2023-07-13T06:53:48;38895.19;;;-145.63;43.45
33422;BME280;19763;55.798;37.782;2023-07-13T06:56:15;38965.56;;;-145.63;43.26
33422;BME280;19763;55.798;37.782;2023-07-13T06:58:40;39004.69;;;-145.63;43.41
33422;BME280;19763;55.798;37.782;2023-07-13T07:01:06;38748.50;;;-145.63;43.50
33422;BME280;19763;55.798;37.782;2023-07-13T07:03:32;39014.47;;;-145.63;43.42
33422;BME280;19763;55.798;37.782;2023-07-13T07:06:27;38959.72;;;-145.63;43.05
33422;BME280;19763;55.798;37.782;2023-07-13T07:08:53;38977.31;;;-145.63;43.59
33422;BME280;19763;55.798;37.782;2023-07-13T07:11:24;39012.50;;;-145.63;44.11
33422;BME280;19763;55.798;37.782;2023-07-13T07:13:52;39079.00;;;-145.63;44.21
33422;BME280;19763;55.798;37.782;2023-07-13T07:16:19;38996.88;;;-145.63;45.16
33422;BME280;19763;55.798;37.782;2023-07-13T07:18:45;39022.28;;;-145.63;45.19
33422;BME280;19763;55.798;37.782;2023-07-13T07:21:12;38991.00;;;-145.63;45.24
33422;BME280;19763;55.798;37.782;2023-07-13T07:23:37;38969.50;;;-145.63;44.93
33422;BME280;19763;55.798;37.782;2023-07-13T07:26:03;39000.78;;;-145.63;45.68
33422;BME280;19763;55.798;37.782;2023-07-13T07:28:29;39020.34;;;-145.63;45.64
33422;BME280;19763;55.798;37.782;2023-07-13T07:30:57;39028.16;;;-145.63;45.76
33422;BME280;19763;55.798;37.782;2023-07-13T07:33:23;39008.59;;;-145.63;46.33
33422;BME280;19763;55.798;37.782;2023-07-13T07:35:49;39035.97;;;-145.63;45.41
33422;BME280;19763;55.798;37.782;2023-07-13T07:38:15;39037.94;;;-145.63;46.04
33422;BME280;19763;55.798;37.782;2023-07-13T07:40:41;39047.72;;;-145.63;46.22
33422;BME280;19763;55.798;37.782;2023-07-13T07:43:11;39020.34;;;-145.63;45.97
33422;BME280;19763;55.798;37.782;2023-07-13T07:45:38;39000.78;;;-145.63;45.28
33422;BME280;19763;55.798;37.782;2023-07-13T07:48:05;39000.78;;;-145.63;45.36
33422;BME280;19763;55.798;37.782;2023-07-13T07:50:31;39014.47;;;-145.63;45.80
33422;BME280;19763;55.798;37.782;2023-07-13T07:52:57;39030.13;;;-145.63;46.18
33422;BME280;19763;55.798;37.782;2023-07-13T07:55:24;39016.44;;;-145.63;45.37
33422;BME280;19763;55.798;37.782;2023-07-13T07:57:52;39028.16;;;-145.63;45.58
33422;BME280;19763;55.798;37.782;2023-07-13T08:00:17;39016.44;;;-145.63;45.95
33422;BME280;19763;55.798;37.782;2023-07-13T08:02:43;39041.84;;;-145.63;46.48
33422;BME280;19763;55.798;37.782;2023-07-13T08:05:09;39018.38;;;-145.63;46.08
33422;BME280;19763;55.798;37.782;2023-07-13T08:07:37;39094.66;;;-145.63;47.04
33422;BME280;19763;55.798;37.782;2023-07-13T08:10:03;39034.03;;;-145.63;47.43
33422;BME280;19763;55.798;37.782;2023-07-13T08:12:29;39051.63;;;-145.63;47.83
33422;BME280;19763;55.798;37.782;2023-07-13T08:14:55;39063.34;;;-145.63;47.49
33422;BME280;19763;55.798;37.782;2023-07-13T08:17:23;39057.50;;;-145.63;48.31
33422;BME280;19763;55.798;37.782;2023-07-13T08:19:49;39086.81;;;-145.63;48.67
33422;BME280;19763;55.798;37.782;2023-07-13T08:22:15;39039.88;;;-145.63;48.87
33422;BME280;19763;55.798;37.782;2023-07-13T08:24:41;39053.59;;;-145.63;48.83
33422;BME280;19763;55.798;37.782;2023-07-13T08:27:08;39045.75;;;-145.63;49.06
33422;BME280;19763;55.798;37.782;2023-07-13T08:29:33;39043.81;;;-145.63;48.37
33422;BME280;19763;55.798;37.782;2023-07-13T08:31:59;39035.97;;;-145.63;48.44
33422;BME280;19763;55.798;37.782;2023-07-13T08:34:25;39043.81;;;-145.63;49.04
33422;BME280;19763;55.798;37.782;2023-07-13T08:36:50;39055.53;;;-145.63;49.27
33422;BME280;19763;55.798;37.782;2023-07-13T08:39:16;39037.94;;;-145.63;49.11
33422;BME280;19763;55.798;37.782;2023-07-13T08:41:53;39061.41;;;-145.63;49.54
33422;BME280;19763;55.798;37.782;2023-07-13T08:47:14;38996.88;;;-145.63;49.34
33422;BME280;19763;55.798;37.782;2023-07-13T08:49:41;38269.47;;;-145.63;50.52
33422;BME280;19763;55.798;37.782;2023-07-13T08:52:37;39059.44;;;-145.63;50.24
33422;BME280;19763;55.798;37.782;2023-07-13T08:55:06;39055.53;;;-145.63;49.53
33422;BME280;19763;55.798;37.782;2023-07-13T08:57:35;39063.34;;;-145.63;50.30
33422;BME280;19763;55.798;37.782;2023-07-13T09:00:01;39032.06;;;-145.63;50.04
33422;BME280;19763;55.798;37.782;2023-07-13T09:02:51;38652.69;;;-145.63;49.80
33422;BME280;19763;55.798;37.782;2023-07-13T09:05:29;39020.34;;;-145.63;50.67
33422;BME280;19763;55.798;37.782;2023-07-13T09:10:53;39057.50;;;-145.63;50.72
33422;BME280;19763;55.798;37.782;2023-07-13T09:13:33;39043.81;;;-145.63;51.25
33422;BME280;19763;55.798;37.782;2023-07-13T09:16:03;39034.03;;;-145.63;50.41
33422;BME280;19763;55.798;37.782;2023-07-13T09:18:47;39094.66;;;-145.63;51.26
33422;BME280;19763;55.798;37.782;2023-07-13T09:21:46;39065.31;;;-145.63;52.60
33422;BME280;19763;55.798;37.782;2023-07-13T09:24:28;39057.50;;;-145.63;52.49
33422;BME280;19763;55.798;37.782;2023-07-13T09:26:55;39057.50;;;-145.63;53.40
33422;BME280;19763;55.798;37.782;2023-07-13T09:29:27;39096.59;;;-145.63;52.60
33422;BME280;19763;55.798;37.782;2023-07-13T09:31:56;39090.75;;;-145.63;52.59
33422;BME280;19763;55.798;37.782;2023-07-13T09:34:24;39086.81;;;-145.63;53.20
33422;BME280;19763;55.798;37.782;2023-07-13T09:36:49;39086.81;;;-145.63;52.88
33422;BME280;19763;55.798;37.782;2023-07-13T09:39:27;39071.19;;;-145.63;53.50
33422;BME280;19763;55.798;37.782;2023-07-13T09:42:15;39112.25;;;-145.63;53.83
33422;BME280;19763;55.798;37.782;2023-07-13T09:44:58;39071.19;;;-145.63;53.10
33422;BME280;19763;55.798;37.782;2023-07-13T09:47:29;39067.28;;;-145.63;52.83
33422;BME280;19763;55.798;37.782;2023-07-13T09:50:00;39069.22;;;-145.63;52.96
33422;BME280;19763;55.798;37.782;2023-07-13T09:52:27;39059.44;;;-145.63;53.63
33422;BME280;19763;55.798;37.782;2023-07-13T09:54:54;39067.28;;;-145.63;53.92
33422;BME280;19763;55.798;37.782;2023-07-13T09:57:26;39086.81;;;-145.63;53.25
33422;BME280;19763;55.798;37.782;2023-07-13T09:59:55;39061.41;;;-145.63;53.92
33422;BME280;19763;55.798;37.782;2023-07-13T10:02:34;39059.44;;;-145.63;53.47
33422;BME280;19763;55.798;37.782;2023-07-13T10:05:13;39077.06;;;-145.63;53.57
33422;BME280;19763;55.798;37.782;2023-07-13T10:07:41;39055.53;;;-145.63;54.10
33422;BME280;19763;55.798;37.782;2023-07-13T10:10:18;39098.56;;;-145.63;54.36
33422;BME280;19763;55.798;37.782;2023-07-13T10:12:46;39086.81;;;-145.63;54.08
33422;BME280;19763;55.798;37.782;2023-07-13T10:15:30;39098.56;;;-145.63;53.90
33422;BME280;19763;55.798;37.782;2023-07-13T10:17:56;39082.91;;;-145.63;53.81
33422;BME280;19763;55.798;37.782;2023-07-13T10:20:23;39035.97;;;-145.63;54.20
33422;BME280;19763;55.798;37.782;2023-07-13T10:23:01;39086.81;;;-145.63;54.57
33422;BME280;19763;55.798;37.782;2023-07-13T10:25:32;38877.56;;;-145.63;54.65
33422;BME280;19763;55.798;37.782;2023-07-13T10:28:28;39116.16;;;-145.63;54.42
33422;BME280;19763;55.798;37.782;2023-07-13T10:30:56;39104.44;;;-145.63;54.65
33422;BME280;19763;55.798;37.782;2023-07-13T10:33:23;39073.13;;;-145.63;54.91
33422;BME280;19763;55.798;37.782;2023-07-13T10:35:52;39016.44;;;-145.63;55.59
33422;BME280;19763;55.798;37.782;2023-07-13T10:38:22;39125.94;;;-145.63;55.50
33422;BME280;19763;55.798;37.782;2023-07-13T10:43:27;39094.66;;;-145.63;54.92
33422;BME280;19763;55.798;37.782;2023-07-13T10:45:54;39137.69;;;-145.63;54.69
33422;BME280;19763;55.798;37.782;2023-07-13T10:48:21;39123.97;;;-145.63;55.49
33422;BME280;19763;55.798;37.782;2023-07-13T10:50:50;39170.91;;;-145.63;54.78
33422;BME280;19763;55.798;37.782;2023-07-13T10:53:22;39102.47;;;-145.63;55.31
33422;BME280;19763;55.798;37.782;2023-07-13T11:03:37;39118.13;;;-145.63;55.92
33422;BME280;19763;55.798;37.782;2023-07-13T11:08:57;39129.84;;;-145.63;56.26
33422;BME280;19763;55.798;37.782;2023-07-13T11:21:20;39161.13;;;-145.63;56.37
33422;BME280;19763;55.798;37.782;2023-07-13T11:26:50;39174.84;;;-145.63;57.32
33422;BME280;19763;55.798;37.782;2023-07-13T11:29:35;39172.88;;;-145.63;57.11
33422;BME280;19763;55.798;37.782;2023-07-13T11:32:25;39161.13;;;-145.63;57.52
33422;BME280;19763;55.798;37.782;2023-07-13T11:34:55;39174.84;;;-145.63;57.28
33422;BME280;19763;55.798;37.782;2023-07-13T11:37:21;39163.09;;;-145.63;57.58
33422;BME280;19763;55.798;37.782;2023-07-13T11:39:50;39184.59;;;-145.63;57.47
33422;BME280;19763;55.798;37.782;2023-07-13T11:42:18;39153.31;;;-145.63;57.39
33422;BME280;19763;55.798;37.782;2023-07-13T11:44:50;39149.41;;;-145.63;57.20
33422;BME280;19763;55.798;37.782;2023-07-13T11:47:21;39151.38;;;-145.63;56.80
33422;BME280;19763;55.798;37.782;2023-07-13T11:49:55;39157.22;;;-145.63;57.11
33422;BME280;19763;55.798;37.782;2023-07-13T11:52:35;39165.06;;;-145.63;57.08
33422;BME280;19763;55.798;37.782;2023-07-13T11:55:08;39168.97;;;-145.63;57.89
33422;BME280;19763;55.798;37.782;2023-07-13T11:58:05;39215.91;;;-145.63;57.08
33422;BME280;19763;55.798;37.782;2023-07-13T12:00:31;39141.59;;;-145.63;57.35
33422;BME280;19763;55.798;37.782;2023-07-13T12:02:59;39151.38;;;-145.63;57.95
33422;BME280;19763;55.798;37.782;2023-07-13T12:05:26;39157.22;;;-145.63;58.29
33422;BME280;19763;55.798;37.782;2023-07-13T12:07:52;39168.97;;;-145.63;58.38
33422;BME280;19763;55.798;37.782;2023-07-13T12:10:27;39180.69;;;-145.63;58.28
33422;BME280;19763;55.798;37.782;2023-07-13T12:13:04;39192.44;;;-145.63;58.57
33422;BME280;19763;55.798;37.782;2023-07-13T12:15:41;39139.63;;;-145.63;58.49
33422;BME280;19763;55.798;37.782;2023-07-13T12:18:18;39131.81;;;-145.63;58.30
33422;BME280;19763;55.798;37.782;2023-07-13T12:20:45;39182.66;;;-145.63;58.74
33422;BME280;19763;55.798;37.782;2023-07-13T12:25:46;38934.28;;;-145.63;58.92
33422;BME280;19763;55.798;37.782;2023-07-13T12:33:56;39116.16;;;-145.63;59.37
33422;BME280;19763;55.798;37.782;2023-07-13T12:36:22;39145.50;;;-145.63;59.49
33422;BME280;19763;55.798;37.782;2023-07-13T12:38:48;39188.53;;;-145.63;59.76
33422;BME280;19763;55.798;37.782;2023-07-13T12:41:15;39122.03;;;-145.63;59.70
33422;BME280;19763;55.798;37.782;2023-07-13T12:43:41;39118.13;;;-145.63;59.75
33422;BME280;19763;55.798;37.782;2023-07-13T12:46:21;39127.91;;;-145.63;59.80
33422;BME280;19763;55.798;37.782;2023-07-13T12:48:53;39104.44;;;-145.63;59.58
33422;BME280;19763;55.798;37.782;2023-07-13T12:51:22;39125.94;;;-145.63;59.74
33422;BME280;19763;55.798;37.782;2023-07-13T12:53:55;39153.31;;;-145.63;59.47
33422;BME280;19763;55.798;37.782;2023-07-13T12:56:24;38930.38;;;-145.63;59.45
33422;BME280;19763;55.798;37.782;2023-07-13T12:59:04;39133.75;;;-145.63;59.55
33422;BME280;19763;55.798;37.782;2023-07-13T13:01:34;39129.84;;;-145.63;59.53
33422;BME280;19763;55.798;37.782;2023-07-13T13:04:03;39143.53;;;-145.63;59.51
33422;BME280;19763;55.798;37.782;2023-07-13T13:06:34;39147.44;;;-145.63;59.58
33422;BME280;19763;55.798;37.782;2023-07-13T13:09:01;39092.69;;;-145.63;59.28
33422;BME280;19763;55.798;37.782;2023-07-13T13:14:04;39131.81;;;-145.63;59.41
33422;BME280;19763;55.798;37.782;2023-07-13T13:16:47;39157.22;;;-145.63;59.65
33422;BME280;19763;55.798;37.782;2023-07-13T13:19:20;39131.81;;;-145.63;59.56
33422;BME280;19763;55.798;37.782;2023-07-13T13:21:47;39147.44;;;-145.63;59.77